Impacts METAR Board INFO
IDs:

KMSP - Minneapolis-St Paul, MN, US

Updated at: 1418 UTC 21 Jan 2018
Potential Impact None Slight Moderate High
Time21/02Z 21/03Z 21/04Z 21/05Z 21/06Z 21/07Z 21/08Z 21/09Z 21/10Z 21/11Z 21/12Z 21/13Z 21/14Z
VIS10 10 10 10 10 10 10 9 10 10 10 10 10
CIG250 250 250 150 100 110 110 110 110 100 110 100 85
CoverBKNBKNBKNOVCOVCOVCOVCOVCOVCOVCOVCOVCOVC
FltCatVFRVFRVFRVFRVFRVFRVFRVFRVFRVFRVFRVFRVFR
WX--------------------------
WDir2302800280035000032036036020
WSpd3 3 0 3 0 3 0 0 0 3 5 5 5
WGst-- -- -- -- -- -- -- -- -- -- -- -- --
Raw hourly METARs
KMSP 210153Z 23003KT 10SM SCT110 BKN250 03/00 A2993 RMK AO2 SLP142 T00330000
KMSP 210253Z 28003KT 10SM SCT130 BKN250 03/00 A2993 RMK AO2 SLP142 T00280000 51001
KMSP 210353Z 00000KT 10SM SCT120 BKN250 02/00 A2993 RMK AO2 SLP146 T00170000
KMSP 210453Z 28003KT 10SM FEW100 OVC150 01/00 A2995 RMK AO2 SLP150 T00110000
KMSP 210553Z 00000KT 10SM BKN100 OVC160 01/00 A2995 RMK AO2 SLP149 4/001 T00110000 10044 20006 400561044 51007
KMSP 210653Z 35003KT 10SM OVC110 02/00 A2995 RMK AO2 SLP149 T00170000
KMSP 210753Z 00000KT 10SM OVC110 02/M01 A2996 RMK AO2 SLP151 T00221006
KMSP 210853Z 00000KT 9SM OVC110 01/M01 A2996 RMK AO2 SLP154 T00111006 53005
KMSP 210953Z 00000KT 10SM OVC110 01/M01 A2996 RMK AO2 SLP152 T00061006
KMSP 211053Z 32003KT 10SM OVC100 01/M01 A2996 RMK AO2 SLP153 T00061006
KMSP 211153Z 36005KT 10SM OVC110 01/M01 A2995 RMK AO2 SLP151 4/001 T00111006 10028 20000 56003
KMSP 211253Z 36005KT 10SM SCT080 OVC100 01/M01 A2996 RMK AO2 SLP155 T00111006
KMSP 211353Z 02005KT 10SM OVC085 01/M01 A2997 RMK AO2 SLP156 T00111011